X  Sluiten METAR luchtvaart weer gegevens      LEGR F.G.L. Airport Granada-Jaén Airport
Temperatuur
75°F Temperatuur
61°F Dauwpunt
61% Vochtigheid



Wind
5 MPH
8 KM/U
2 M/S
4 KTS



80°
O
Huidig weer

Helder Helder
Luchtdruk 1021 (hPa) - 30.15 (inHg)
Zicht 6 (mijl) - 9.7 (km)
Vliegveld
Vliegveld code LEGR

Locatie : F.G.L. Airport Granada-Jaén Airport
Afstand: 138 (mi)

Metar:
LEGR 230300Z AUTO 08004KT 020V110 CAVOK 24/16 Q1021

Tijd: 23-07-2024 05:00 CEST